createdAt,value
2018-03-01T00:00:13.764Z,1002.9
2018-03-01T00:01:23.553Z,1002.93
2018-03-01T00:02:33.336Z,1002.92
2018-03-01T00:03:43.116Z,1002.94
2018-03-01T00:04:52.903Z,1002.91
2018-03-01T00:06:02.743Z,1002.91
2018-03-01T00:07:12.270Z,1002.92
2018-03-01T00:08:22.060Z,1002.92
2018-03-01T00:09:31.853Z,1002.91
2018-03-01T00:10:41.948Z,1002.95
2018-03-01T00:11:51.732Z,1002.97
2018-03-01T00:13:01.782Z,1002.93
2018-03-01T00:14:11.054Z,1002.87
2018-03-01T00:15:21.118Z,1002.87
2018-03-01T00:16:30.652Z,1002.84
2018-03-01T00:17:40.464Z,1002.92
2018-03-01T00:18:50.538Z,1002.95
2018-03-01T00:20:00.587Z,1002.97
2018-03-01T00:21:10.392Z,1002.97
2018-03-01T00:22:19.976Z,1002.94
2018-03-01T00:23:29.793Z,1002.9
2018-03-01T00:24:39.035Z,1002.93
2018-03-01T00:25:48.822Z,1002.93
2018-03-01T00:26:58.870Z,1002.9
2018-03-01T00:28:08.671Z,1002.87
2018-03-01T00:29:18.184Z,1002.81
2018-03-01T00:30:28.243Z,1002.82
2018-03-01T00:31:38.048Z,1002.78
2018-03-01T00:32:47.851Z,1002.77
2018-03-01T00:33:57.960Z,1002.72
2018-03-01T00:35:07.754Z,1002.73
2018-03-01T00:36:17.534Z,1002.74
2018-03-01T00:37:27.590Z,1002.74
2018-03-01T00:38:37.648Z,1002.74
2018-03-01T00:39:47.702Z,1002.72
2018-03-01T00:40:57.484Z,1002.68
2018-03-01T00:42:06.763Z,1002.66
2018-03-01T00:43:16.558Z,1002.67
2018-03-01T00:44:26.624Z,1002.59
2018-03-01T00:45:36.672Z,1002.54
2018-03-01T00:46:45.933Z,1002.58
2018-03-01T00:47:56.024Z,1002.55
2018-03-01T00:49:06.086Z,1002.53
2018-03-01T00:50:15.865Z,1002.5
2018-03-01T00:51:25.662Z,1002.51
2018-03-01T00:52:35.733Z,1002.51
2018-03-01T00:53:45.538Z,1002.54
2018-03-01T00:54:55.065Z,1002.5
2018-03-01T00:56:05.112Z,1002.49
2018-03-01T00:57:14.649Z,1002.48
2018-03-01T00:58:24.440Z,1002.48
2018-03-01T00:59:34.485Z,1002.51
2018-03-01T01:00:44.290Z,1002.45
2018-03-01T01:01:54.342Z,1002.41
2018-03-01T01:03:03.864Z,1002.44
2018-03-01T01:04:13.381Z,1002.41
2018-03-01T01:05:23.167Z,1002.44
2018-03-01T01:06:33.220Z,1002.45
2018-03-01T01:07:43.288Z,1002.5
2018-03-01T01:08:53.066Z,1002.45
2018-03-01T01:10:03.129Z,1002.4
2018-03-01T01:11:12.912Z,1002.33
2018-03-01T01:12:22.937Z,1002.29
2018-03-01T01:13:32.714Z,1002.23
2018-03-01T01:14:42.221Z,1002.17
2018-03-01T01:15:52.258Z,1002.15
2018-03-01T01:17:02.036Z,1002.15
2018-03-01T01:18:12.109Z,1002.17
2018-03-01T01:19:21.899Z,1002.16
2018-03-01T01:20:31.417Z,1002.2
2018-03-01T01:21:41.196Z,1002.16
2018-03-01T01:22:50.972Z,1002.13
2018-03-01T01:24:00.779Z,1002.09
2018-03-01T01:25:10.602Z,1002.07
2018-03-01T01:26:20.672Z,1002.07
2018-03-01T01:27:30.722Z,1002.05
2018-03-01T01:28:40.758Z,1001.98
2018-03-01T01:29:50.264Z,1001.94
2018-03-01T01:30:59.786Z,1001.88
2018-03-01T01:32:09.817Z,1001.95
2018-03-01T01:33:19.611Z,1001.97
2018-03-01T01:34:28.861Z,1001.93
2018-03-01T01:35:38.960Z,1001.93
2018-03-01T01:36:48.745Z,1001.92
2018-03-01T01:37:58.526Z,1001.94
2018-03-01T01:39:08.313Z,1001.89
2018-03-01T01:40:17.850Z,1001.92
2018-03-01T01:41:27.901Z,1001.84
2018-03-01T01:42:37.678Z,1001.85
2018-03-01T01:43:47.457Z,1001.8
2018-03-01T01:44:56.980Z,1001.77
2018-03-01T01:46:06.764Z,1001.68
2018-03-01T01:47:16.834Z,1001.69
2018-03-01T01:48:26.976Z,1001.68
2018-03-01T01:49:36.729Z,1001.68
2018-03-01T01:50:46.785Z,1001.63
2018-03-01T01:51:56.569Z,1001.62
2018-03-01T01:53:06.348Z,1001.59
2018-03-01T01:54:16.447Z,1001.62
2018-03-01T01:55:26.231Z,1001.6
2018-03-01T01:56:35.768Z,1001.57
2018-03-01T01:57:45.613Z,1001.54
2018-03-01T01:58:55.657Z,1001.5
2018-03-01T02:00:05.603Z,1001.49
2018-03-01T02:01:15.387Z,1001.46
2018-03-01T02:02:25.178Z,1001.41
2018-03-01T02:03:34.699Z,1001.48
2018-03-01T02:04:44.740Z,1001.54
2018-03-01T02:05:54.787Z,1001.5
2018-03-01T02:07:04.853Z,1001.51
2018-03-01T02:08:14.627Z,1001.51
2018-03-01T02:09:24.756Z,1001.52
2018-03-01T02:10:34.805Z,1001.47
2018-03-01T02:11:44.326Z,1001.47
2018-03-01T02:12:53.834Z,1001.47
2018-03-01T02:14:03.873Z,1001.48
2018-03-01T02:15:13.927Z,1001.44
2018-03-01T02:16:23.980Z,1001.44
2018-03-01T02:17:33.765Z,1001.41
2018-03-01T02:18:43.814Z,1001.47
2018-03-01T02:19:53.846Z,1001.43
2018-03-01T02:21:03.675Z,1001.37
2018-03-01T02:22:13.473Z,1001.35
2018-03-01T02:23:23.526Z,1001.28
2018-03-01T02:24:33.307Z,1001.23
2018-03-01T02:25:43.365Z,1001.27
2018-03-01T02:26:53.135Z,1001.21
2018-03-01T02:28:02.670Z,1001.17
2018-03-01T02:29:12.729Z,1001.17
2018-03-01T02:30:22.770Z,1001.19
2018-03-01T02:31:32.827Z,1001.18
2018-03-01T02:32:42.934Z,1001.13
2018-03-01T02:33:52.740Z,1001.18
2018-03-01T02:35:02.812Z,1001.11
2018-03-01T02:36:12.602Z,1001.07
2018-03-01T02:37:22.654Z,1000.97
2018-03-01T02:38:32.452Z,1001.02
2018-03-01T02:39:42.485Z,1001
2018-03-01T02:40:52.267Z,1000.95
2018-03-01T02:42:02.329Z,1000.94
2018-03-01T02:43:12.399Z,1000.93
2018-03-01T02:44:22.172Z,1000.91
2018-03-01T02:45:32.215Z,1000.86
2018-03-01T02:46:42.294Z,1000.78
2018-03-01T02:47:52.080Z,1000.74
2018-03-01T02:49:01.869Z,1000.69
2018-03-01T02:50:11.915Z,1000.69
2018-03-01T02:51:21.692Z,1000.67
2018-03-01T02:52:31.470Z,1000.6
2018-03-01T02:53:41.529Z,1000.59
2018-03-01T02:54:51.313Z,1000.59
2018-03-01T02:56:01.092Z,1000.51
2018-03-01T02:57:11.139Z,1000.52
2018-03-01T02:58:20.996Z,1000.54
2018-03-01T02:59:31.579Z,1000.5
2018-03-01T03:00:41.376Z,1000.46
2018-03-01T03:01:51.421Z,1000.48
2018-03-01T03:03:00.946Z,1000.45
2018-03-01T03:04:11.001Z,1000.47
2018-03-01T03:05:20.837Z,1000.44
2018-03-01T03:06:30.900Z,1000.47
2018-03-01T03:07:40.681Z,1000.46
2018-03-01T03:39:06.364Z,999.92
2018-03-01T03:40:16.386Z,999.91
2018-03-01T03:41:26.435Z,999.92
2018-03-01T03:42:36.488Z,999.91
2018-03-01T03:43:46.532Z,999.86
2018-03-01T03:44:56.053Z,999.9
2018-03-01T03:46:06.083Z,999.85
2018-03-01T03:47:15.857Z,999.86
2018-03-01T03:48:25.641Z,999.89
2018-03-01T03:49:35.688Z,999.84
2018-03-01T03:50:45.488Z,999.88
2018-03-01T03:51:55.530Z,999.92
2018-03-01T03:53:05.572Z,999.86
2018-03-01T03:54:15.622Z,999.83
2018-03-01T03:55:25.671Z,999.76
2018-03-01T03:56:35.730Z,999.81
2018-03-01T03:57:45.761Z,999.8
2018-03-01T03:58:55.804Z,999.79
2018-03-01T04:00:05.879Z,999.73
2018-03-01T04:01:15.928Z,999.8
2018-03-01T04:02:25.981Z,999.74
2018-03-01T04:03:35.780Z,999.75
2018-03-01T04:04:45.612Z,999.74
2018-03-01T04:05:55.659Z,999.76
2018-03-01T04:07:05.712Z,999.77
2018-03-01T04:08:15.542Z,999.83
2018-03-01T04:09:25.322Z,999.82
2018-03-01T04:10:35.368Z,999.75
2018-03-01T04:11:45.149Z,999.73
2018-03-01T04:12:55.202Z,999.79
2018-03-01T04:14:05.252Z,999.73
2018-03-01T04:15:15.030Z,999.81
2018-03-01T04:16:25.098Z,999.74
2018-03-01T04:17:34.628Z,999.75
2018-03-01T04:18:44.674Z,999.73
2018-03-01T04:19:54.756Z,999.65
2018-03-01T04:21:04.802Z,999.7
2018-03-01T04:22:14.576Z,999.72
2018-03-01T04:23:24.370Z,999.69
2018-03-01T04:24:34.417Z,999.67
2018-03-01T04:25:43.986Z,999.66
2018-03-01T04:26:53.778Z,999.67
2018-03-01T04:28:03.819Z,999.68
2018-03-01T04:29:13.342Z,999.67
2018-03-01T04:30:23.407Z,999.65
2018-03-01T04:31:33.448Z,999.65
2018-03-01T04:32:42.971Z,999.62
2018-03-01T04:33:52.482Z,999.67
2018-03-01T04:35:02.006Z,999.66
2018-03-01T04:36:12.063Z,999.62
2018-03-01T04:37:21.572Z,999.61
2018-03-01T04:38:31.355Z,999.61
2018-03-01T04:39:41.412Z,999.55
2018-03-01T04:40:51.471Z,999.56
2018-03-01T04:42:01.537Z,999.54
2018-03-01T04:43:11.593Z,999.47
2018-03-01T04:44:21.634Z,999.47
2018-03-01T04:45:31.421Z,999.47
2018-03-01T04:46:41.478Z,999.44
2018-03-01T04:47:51.514Z,999.46
2018-03-01T04:49:01.636Z,999.47
2018-03-01T04:50:11.705Z,999.51
2018-03-01T04:51:21.791Z,999.53
2018-03-01T04:52:31.852Z,999.56
2018-03-01T04:53:41.370Z,999.56
2018-03-01T04:54:51.151Z,999.56
2018-03-01T04:56:00.938Z,999.51
2018-03-01T04:57:10.987Z,999.49
2018-03-01T04:58:20.532Z,999.52
2018-03-01T04:59:30.373Z,999.53
2018-03-01T05:00:40.478Z,999.52
2018-03-01T05:01:50.266Z,999.47
2018-03-01T05:03:00.322Z,999.48
2018-03-01T05:04:10.369Z,999.43
2018-03-01T05:05:20.149Z,999.47
2018-03-01T05:06:29.978Z,999.41
2018-03-01T05:07:40.018Z,999.41
2018-03-01T05:08:50.092Z,999.46
2018-03-01T05:10:00.132Z,999.46
2018-03-01T05:11:09.929Z,999.47
2018-03-01T05:12:19.976Z,999.49
2018-03-01T05:13:29.762Z,999.49
2018-03-01T05:14:39.810Z,999.45
2018-03-01T05:15:49.862Z,999.48
2018-03-01T05:16:59.958Z,999.45
2018-03-01T05:18:09.483Z,999.44
2018-03-01T05:19:19.540Z,999.44
2018-03-01T05:20:29.076Z,999.36
2018-03-01T05:21:39.138Z,999.35
2018-03-01T05:22:49.190Z,999.35
2018-03-01T05:23:58.964Z,999.34
2018-03-01T05:25:09.003Z,999.31
2018-03-01T05:26:19.078Z,999.31
2018-03-01T05:27:28.876Z,999.31
2018-03-01T05:28:38.934Z,999.22
2018-03-01T05:29:48.996Z,999.27
2018-03-01T05:30:58.507Z,999.28
2018-03-01T05:32:08.563Z,999.29
2018-03-01T05:33:18.614Z,999.28
2018-03-01T05:34:28.673Z,999.31
2018-03-01T05:35:37.942Z,999.31
2018-03-01T05:36:47.756Z,999.35
2018-03-01T05:37:57.816Z,999.35
2018-03-01T05:39:07.872Z,999.28
2018-03-01T05:40:17.929Z,999.28
2018-03-01T05:41:28.269Z,999.29
2018-03-01T05:42:38.316Z,999.3
2018-03-01T05:43:48.105Z,999.22
2018-03-01T05:44:58.140Z,999.26
2018-03-01T05:46:08.182Z,999.28
2018-03-01T05:47:18.014Z,999.27
2018-03-01T05:48:28.070Z,999.22
2018-03-01T05:49:38.096Z,999.24
2018-03-01T05:50:48.200Z,999.22
2018-03-01T05:51:58.265Z,999.26
2018-03-01T05:53:08.366Z,999.31
2018-03-01T05:54:18.148Z,999.32
2018-03-01T05:55:27.925Z,999.22
2018-03-01T05:56:37.721Z,999.24
2018-03-01T05:57:47.518Z,999.24
2018-03-01T05:58:57.315Z,999.29
2018-03-01T06:00:07.367Z,999.3
2018-03-01T06:01:16.629Z,999.23
2018-03-01T06:02:26.695Z,999.3
2018-03-01T06:03:36.561Z,999.26
2018-03-01T06:04:46.407Z,999.25
2018-03-01T06:05:56.199Z,999.24
2018-03-01T06:07:06.238Z,999.2
2018-03-01T06:08:15.755Z,999.18
2018-03-01T06:09:25.573Z,999.17
2018-03-01T06:10:35.762Z,999.2
2018-03-01T06:11:45.824Z,999.17
2018-03-01T06:12:55.623Z,999.19
2018-03-01T06:14:05.406Z,999.1
2018-03-01T06:15:15.461Z,999.03
2018-03-01T06:16:25.246Z,999.06
2018-03-01T06:17:35.283Z,998.94
2018-03-01T06:18:45.343Z,998.92
2018-03-01T06:19:55.464Z,998.89
2018-03-01T06:21:05.489Z,998.92
2018-03-01T06:22:15.007Z,998.89
2018-03-01T06:23:25.052Z,998.84
2018-03-01T06:24:34.841Z,998.85
2018-03-01T06:25:44.896Z,998.79
2018-03-01T06:26:54.675Z,998.8
2018-03-01T06:28:04.514Z,998.82
2018-03-01T06:29:14.296Z,998.81
2018-03-01T06:30:24.072Z,998.84
2018-03-01T06:31:33.848Z,998.76
2018-03-01T06:32:43.895Z,998.73
2018-03-01T06:33:53.942Z,998.75
2018-03-01T06:35:03.970Z,998.71
2018-03-01T06:36:14.069Z,998.72
2018-03-01T06:37:24.122Z,998.7
2018-03-01T06:38:33.653Z,998.71
2018-03-01T06:39:43.706Z,998.73
2018-03-01T06:40:53.748Z,998.74
2018-03-01T06:42:03.546Z,998.67
2018-03-01T06:43:13.575Z,998.74
2018-03-01T06:44:23.374Z,998.71
2018-03-01T06:45:33.429Z,998.7
2018-03-01T06:46:43.223Z,998.62
2018-03-01T06:47:53.280Z,998.59
2018-03-01T06:49:03.342Z,998.59
2018-03-01T06:50:13.534Z,998.57
2018-03-01T06:51:23.590Z,998.57
2018-03-01T06:52:33.126Z,998.6
2018-03-01T06:53:43.168Z,998.65
2018-03-01T06:54:52.935Z,998.67
2018-03-01T06:56:02.552Z,998.6
2018-03-01T06:57:12.445Z,998.6
2018-03-01T06:58:22.232Z,998.58
2018-03-01T06:59:32.026Z,998.57
2018-03-01T07:00:41.800Z,998.5
2018-03-01T07:01:51.581Z,998.54
2018-03-01T07:03:01.657Z,998.6
2018-03-01T07:04:11.458Z,998.47
2018-03-01T07:05:21.513Z,998.53
2018-03-01T07:06:31.317Z,998.53
2018-03-01T07:07:41.120Z,998.58
2018-03-01T07:08:51.224Z,998.58
2018-03-01T07:10:01.263Z,998.55
2018-03-01T07:11:11.047Z,998.57
2018-03-01T07:12:21.343Z,998.48
2018-03-01T07:13:31.140Z,998.45
2018-03-01T07:14:41.194Z,998.47
2018-03-01T07:15:50.982Z,998.44
2018-03-01T07:17:01.021Z,998.49
2018-03-01T07:18:10.811Z,998.49
2018-03-01T07:19:20.872Z,998.49
2018-03-01T07:20:30.934Z,998.55
2018-03-01T07:21:41.000Z,998.54
2018-03-01T07:22:50.789Z,998.51
2018-03-01T07:24:00.861Z,998.49
2018-03-01T07:25:10.395Z,998.54
2018-03-01T07:26:20.284Z,998.49
2018-03-01T07:27:29.538Z,998.57
2018-03-01T07:28:39.082Z,998.48
2018-03-01T07:29:49.117Z,998.6
2018-03-01T07:30:58.904Z,998.53
2018-03-01T07:32:08.490Z,998.52
2018-03-01T07:33:18.547Z,998.61
2018-03-01T07:34:28.353Z,998.54
2018-03-01T07:35:38.158Z,998.5
2018-03-01T07:36:47.689Z,998.52
2018-03-01T07:37:57.586Z,998.48
2018-03-01T07:39:07.135Z,998.47
2018-03-01T07:40:16.664Z,998.42
2018-03-01T07:41:26.474Z,998.36
2018-03-01T07:42:36.511Z,998.32
2018-03-01T07:43:46.569Z,998.32
2018-03-01T07:44:56.359Z,998.32
2018-03-01T07:46:06.402Z,998.31
2018-03-01T07:47:16.399Z,998.3
2018-03-01T07:48:26.465Z,998.28
2018-03-01T07:49:35.980Z,998.26
2018-03-01T07:50:45.765Z,998.28
2018-03-01T07:51:55.566Z,998.29
2018-03-01T07:53:05.617Z,998.23
2018-03-01T07:54:15.658Z,998.18
2018-03-01T07:55:25.742Z,998.19
2018-03-01T07:56:35.538Z,998.13
2018-03-01T07:57:45.582Z,998.11
2018-03-01T07:58:55.653Z,998.06
2018-03-01T08:00:05.184Z,998.04
2018-03-01T08:01:15.255Z,998.1
2018-03-01T08:02:25.043Z,998.04
2018-03-01T08:03:34.845Z,998
2018-03-01T08:04:44.379Z,998.03
2018-03-01T08:05:54.446Z,998.07
2018-03-01T08:07:04.248Z,998.03
2018-03-01T08:08:13.761Z,997.95
2018-03-01T08:09:23.568Z,997.97
2018-03-01T08:10:33.649Z,997.93
2018-03-01T08:11:43.462Z,997.85
2018-03-01T08:12:53.521Z,997.92
2018-03-01T08:14:02.774Z,997.85
2018-03-01T08:15:12.581Z,997.84
2018-03-01T08:16:22.368Z,997.9
2018-03-01T08:17:31.890Z,997.87
2018-03-01T08:18:41.427Z,997.79
2018-03-01T08:19:51.203Z,997.86
2018-03-01T08:21:01.009Z,997.78
2018-03-01T08:22:10.807Z,997.79
2018-03-01T08:23:20.590Z,997.77
2018-03-01T08:24:30.646Z,997.78
2018-03-01T08:25:40.702Z,997.81
2018-03-01T08:26:50.768Z,997.82
2018-03-01T08:28:00.840Z,997.66
2018-03-01T08:29:10.922Z,997.72
2018-03-01T08:30:20.780Z,997.64
2018-03-01T08:31:30.875Z,997.68
2018-03-01T08:32:40.666Z,997.61
2018-03-01T08:33:50.710Z,997.57
2018-03-01T08:35:00.762Z,997.59
2018-03-01T08:36:10.908Z,997.66
2018-03-01T08:37:20.970Z,997.64
2018-03-01T08:38:30.882Z,997.66
2018-03-01T08:39:40.930Z,997.65
2018-03-01T08:40:50.990Z,997.6
2018-03-01T08:42:01.095Z,997.66
2018-03-01T08:43:10.878Z,997.67
2018-03-01T08:44:20.922Z,997.67
2018-03-01T08:45:30.730Z,997.69
2018-03-01T08:46:40.559Z,997.68
2018-03-01T08:47:50.636Z,997.67
2018-03-01T08:49:00.690Z,997.61
2018-03-01T08:50:10.487Z,997.66
2018-03-01T08:51:20.565Z,997.57
2018-03-01T08:52:30.081Z,997.56
2018-03-01T08:53:39.928Z,997.58
2018-03-01T08:54:49.985Z,997.55
2018-03-01T08:56:00.092Z,997.52
2018-03-01T08:57:09.890Z,997.46
2018-03-01T08:58:19.692Z,997.42
2018-03-01T08:59:29.764Z,997.5
2018-03-01T09:00:39.052Z,997.55
2018-03-01T09:01:48.857Z,997.51
2018-03-01T09:02:58.929Z,997.59
2018-03-01T09:04:08.714Z,997.47
2018-03-01T09:05:18.996Z,997.45
2018-03-01T09:06:29.067Z,997.43
2018-03-01T09:07:38.856Z,997.46
2018-03-01T09:08:48.649Z,997.41
2018-03-01T09:09:58.181Z,997.36
2018-03-01T09:11:08.173Z,997.34
2018-03-01T09:12:18.235Z,997.36
2018-03-01T09:13:28.299Z,997.33
2018-03-01T09:14:38.336Z,997.32
2018-03-01T09:15:48.407Z,997.39
2018-03-01T09:16:57.684Z,997.36
2018-03-01T09:18:07.482Z,997.31
2018-03-01T09:19:17.274Z,997.24
2018-03-01T09:20:27.125Z,997.14
2018-03-01T09:21:36.926Z,997.13
2018-03-01T09:22:46.976Z,997.25
2018-03-01T09:23:56.769Z,997.12
2018-03-01T09:25:06.836Z,997.12
2018-03-01T09:26:16.903Z,997.24
2018-03-01T09:27:26.957Z,997.11
2018-03-01T09:28:37.070Z,997.14
2018-03-01T09:29:46.875Z,997.03
2018-03-01T09:30:56.412Z,997.12
2018-03-01T09:32:06.212Z,997.15
2018-03-01T09:33:16.015Z,997.03
2018-03-01T09:34:26.115Z,997.05
2018-03-01T09:35:36.187Z,997.05
2018-03-01T09:36:46.285Z,997.15
2018-03-01T09:37:56.353Z,997.16
2018-03-01T09:39:06.424Z,997.08
2018-03-01T09:40:16.282Z,997.1
2018-03-01T09:41:26.627Z,997.06
2018-03-01T09:42:36.693Z,997.07
2018-03-01T09:43:46.764Z,997.03
2018-03-01T09:44:56.551Z,997.06
2018-03-01T09:46:06.635Z,997.05
2018-03-01T09:47:16.467Z,996.96
2018-03-01T09:48:26.537Z,997.03
2018-03-01T09:49:36.081Z,997.09
2018-03-01T09:50:45.885Z,996.98
2018-03-01T09:51:55.982Z,997
2018-03-01T09:53:05.787Z,996.94
2018-03-01T09:54:15.842Z,996.9
2018-03-01T09:55:25.937Z,996.91
2018-03-01T09:56:36.026Z,996.85
2018-03-01T09:57:46.093Z,996.89
2018-03-01T09:58:56.220Z,996.86
2018-03-01T10:00:06.280Z,996.82
2018-03-01T10:01:15.818Z,996.76
2018-03-01T10:02:25.647Z,996.85
2018-03-01T10:03:35.505Z,996.75
2018-03-01T10:04:45.595Z,996.73
2018-03-01T10:05:55.411Z,996.76
2018-03-01T10:07:05.019Z,996.63
2018-03-01T10:08:14.831Z,996.68
2018-03-01T10:09:24.673Z,996.69
2018-03-01T10:10:34.734Z,996.74
2018-03-01T10:11:45.020Z,996.71
2018-03-01T10:12:54.877Z,996.63
2018-03-01T10:14:04.416Z,996.64
2018-03-01T10:15:14.267Z,996.56
2018-03-01T10:16:23.805Z,996.56
2018-03-01T10:17:33.102Z,996.5
2018-03-01T10:18:42.640Z,996.5
2018-03-01T10:19:52.196Z,996.47
2018-03-01T10:21:02.257Z,996.6
2018-03-01T10:22:12.346Z,996.49
2018-03-01T10:23:21.890Z,996.51
2018-03-01T10:24:31.960Z,996.53
2018-03-01T10:25:41.768Z,996.52
2018-03-01T10:26:51.840Z,996.52
2018-03-01T10:28:01.910Z,996.4
2018-03-01T10:29:11.739Z,996.45
2018-03-01T10:30:21.540Z,996.37
2018-03-01T10:31:31.332Z,996.38
2018-03-01T10:32:41.120Z,996.38
2018-03-01T10:33:51.196Z,996.26
2018-03-01T10:35:00.998Z,996.34
2018-03-01T10:36:10.792Z,996.34
2018-03-01T10:37:20.328Z,996.32
2018-03-01T10:38:30.429Z,996.25
2018-03-01T10:39:40.525Z,996.31
2018-03-01T10:40:50.597Z,996.34
2018-03-01T10:42:00.446Z,996.27
2018-03-01T10:43:10.270Z,996.28
2018-03-01T10:44:22.007Z,996.25
2018-03-01T10:45:40.223Z,996.22
2018-03-01T10:46:50.058Z,996.22
2018-03-01T10:48:00.137Z,996.2
2018-03-01T10:49:10.220Z,996.08
2018-03-01T10:50:20.022Z,996.11
2018-03-01T10:51:30.083Z,996.13
2018-03-01T10:52:41.081Z,996.15
2018-03-01T10:53:56.536Z,996.26
2018-03-01T10:55:06.204Z,996.05
2018-03-01T10:56:16.055Z,996.25
2018-03-01T10:57:25.849Z,996.05
2018-03-01T10:58:35.659Z,996.1
2018-03-01T10:59:45.468Z,996
2018-03-01T11:00:55.549Z,996.13
2018-03-01T11:02:05.658Z,996.03
2018-03-01T11:03:15.746Z,995.96
2018-03-01T11:04:25.846Z,996.01
2018-03-01T11:05:35.433Z,995.98
2018-03-01T11:06:45.009Z,996.08
2018-03-01T11:07:54.806Z,996.07
2018-03-01T11:09:04.633Z,995.99
2018-03-01T11:10:14.426Z,996.03
2018-03-01T11:11:24.248Z,995.92
2018-03-01T11:12:34.134Z,995.94
2018-03-01T11:13:43.971Z,995.94
2018-03-01T11:14:54.038Z,995.88
2018-03-01T11:16:03.929Z,995.86
2018-03-01T11:17:14.049Z,995.92
2018-03-01T11:18:23.954Z,995.92
2018-03-01T11:19:34.070Z,995.8
2018-03-01T11:20:43.606Z,995.78
2018-03-01T11:21:53.144Z,995.84
2018-03-01T11:23:02.995Z,995.96
2018-03-01T11:24:12.538Z,995.96
2018-03-01T11:25:22.076Z,995.86
2018-03-01T11:26:31.918Z,995.83
2018-03-01T11:27:41.985Z,995.88
2018-03-01T11:28:52.053Z,995.9
2018-03-01T11:30:02.320Z,995.88
2018-03-01T11:31:11.848Z,995.91
2018-03-01T11:32:21.946Z,995.98
2018-03-01T11:33:31.740Z,995.93
2018-03-01T11:34:41.810Z,995.94
2018-03-01T11:35:52.171Z,995.93
2018-03-01T11:37:01.974Z,996
2018-03-01T11:38:12.025Z,996
2018-03-01T11:39:21.585Z,995.89
2018-03-01T11:40:31.637Z,995.85
2018-03-01T11:41:41.704Z,995.8
2018-03-01T11:42:51.766Z,995.87
2018-03-01T11:44:01.568Z,995.79
2018-03-01T11:45:11.355Z,995.82
2018-03-01T11:46:21.168Z,995.8
2018-03-01T11:47:31.217Z,995.64
2018-03-01T11:48:41.320Z,995.6
2018-03-01T11:49:51.112Z,995.65
2018-03-01T11:51:01.177Z,995.69
2018-03-01T11:52:11.284Z,995.59
2018-03-01T11:53:20.876Z,995.62
2018-03-01T11:54:30.686Z,995.48
2018-03-01T11:55:40.505Z,995.47
2018-03-01T11:56:50.319Z,995.48
2018-03-01T11:58:00.392Z,995.46
2018-03-01T11:59:10.219Z,995.32
2018-03-01T12:00:20.339Z,995.25
2018-03-01T12:01:30.446Z,995.33
2018-03-01T12:02:40.018Z,995.26
2018-03-01T12:03:50.111Z,995.51
2018-03-01T12:04:59.966Z,995.27
2018-03-01T12:06:10.072Z,995.2
2018-03-01T12:07:19.903Z,995.35
2018-03-01T12:08:30.028Z,995.32
2018-03-01T12:09:40.136Z,995.21
2018-03-01T12:10:50.048Z,995.16
2018-03-01T12:11:59.881Z,995.19
2018-03-01T12:13:09.966Z,995.1
2018-03-01T12:14:19.784Z,995.08
2018-03-01T12:15:29.870Z,995.12
2018-03-01T12:16:40.051Z,995.13
2018-03-01T12:17:50.144Z,995
2018-03-01T12:19:00.230Z,995.15
2018-03-01T12:20:10.044Z,995.05
2018-03-01T12:21:20.099Z,995.26
2018-03-01T12:22:30.191Z,995.11
2018-03-01T12:23:40.269Z,995.18
2018-03-01T12:24:50.326Z,995.09
2018-03-01T12:26:00.124Z,995.04
2018-03-01T12:27:10.213Z,995.05
2018-03-01T12:28:20.377Z,995.01
2018-03-01T12:29:30.462Z,994.88
2018-03-01T12:30:40.298Z,994.92
2018-03-01T12:31:50.398Z,994.96
2018-03-01T12:33:00.490Z,994.94
2018-03-01T12:34:10.622Z,994.87
2018-03-01T12:35:20.705Z,994.86
2018-03-01T12:36:30.780Z,994.83
2018-03-01T12:37:40.593Z,994.85
2018-03-01T12:38:50.659Z,994.88
2018-03-01T12:40:00.486Z,994.86
2018-03-01T12:41:10.598Z,994.91
2018-03-01T12:42:20.426Z,994.9
2018-03-01T12:43:31.329Z,994.86
2018-03-01T12:44:42.845Z,994.79
2018-03-01T12:45:55.961Z,994.83
2018-03-01T12:47:13.936Z,994.7
2018-03-01T12:48:31.584Z,994.75
2018-03-01T12:49:49.001Z,994.77
2018-03-01T12:50:59.654Z,994.74
2018-03-01T12:52:09.817Z,994.77
2018-03-01T12:53:19.892Z,994.76
2018-03-01T12:54:29.969Z,994.74
2018-03-01T12:55:40.048Z,994.71
2018-03-01T12:56:50.123Z,994.74
2018-03-01T12:58:00.220Z,994.81
2018-03-01T12:59:10.273Z,994.81
2018-03-01T13:00:20.063Z,994.89
2018-03-01T13:01:29.868Z,994.77
2018-03-01T13:02:40.020Z,994.77
2018-03-01T13:03:50.098Z,994.72
2018-03-01T13:05:00.179Z,994.65
2018-03-01T13:06:10.256Z,994.63
2018-03-01T13:07:20.328Z,994.66
2018-03-01T13:08:30.171Z,994.63
2018-03-01T13:09:40.230Z,994.63
2018-03-01T13:10:50.291Z,994.61
2018-03-01T13:11:59.857Z,994.54
2018-03-01T13:13:09.916Z,994.57
2018-03-01T13:14:20.044Z,994.54
2018-03-01T13:15:30.126Z,994.52
2018-03-01T13:16:40.227Z,994.48
2018-03-01T13:17:50.286Z,994.4
2018-03-01T13:19:00.121Z,994.44
2018-03-01T13:20:09.980Z,994.52
2018-03-01T13:21:19.801Z,994.45
2018-03-01T13:22:29.886Z,994.44
2018-03-01T13:23:39.432Z,994.48
2018-03-01T13:24:49.533Z,994.44
2018-03-01T13:25:59.661Z,994.44
2018-03-01T13:27:09.813Z,994.38
2018-03-01T13:28:19.644Z,994.41
2018-03-01T13:29:29.761Z,994.36
2018-03-01T13:30:39.845Z,994.37
2018-03-01T13:31:49.677Z,994.32
2018-03-01T13:32:59.494Z,994.28
2018-03-01T13:34:09.368Z,994.32
2018-03-01T13:35:19.169Z,994.33
2018-03-01T13:36:29.240Z,994.25
2018-03-01T13:37:38.532Z,994.15
2018-03-01T13:38:58.188Z,994.13
2018-03-01T13:40:08.275Z,994.14
2018-03-01T13:41:18.372Z,994.24
2018-03-01T13:42:28.460Z,994.2
2018-03-01T13:43:38.565Z,994.15
2018-03-01T13:44:48.710Z,994.14
2018-03-01T13:45:58.807Z,994.1
2018-03-01T13:47:08.628Z,994.12
2018-03-01T13:48:18.434Z,994.08
2018-03-01T13:49:27.714Z,994.06
2018-03-01T13:50:37.572Z,994.05
2018-03-01T13:51:47.645Z,994.12
2018-03-01T13:52:56.936Z,994.11
2018-03-01T13:54:07.032Z,994.04
2018-03-01T13:55:17.123Z,994.01
2018-03-01T13:56:27.202Z,994.07
2018-03-01T13:57:37.026Z,994.05
2018-03-01T13:58:46.580Z,994.05
2018-03-01T13:59:56.373Z,993.97
2018-03-01T14:01:06.418Z,993.99
2018-03-01T14:02:16.544Z,994.12
2018-03-01T14:03:26.626Z,994.03
2018-03-01T14:04:36.427Z,994.02
2018-03-01T14:05:46.252Z,993.94
2018-03-01T14:06:56.070Z,993.97
2018-03-01T14:08:06.177Z,993.96
2018-03-01T14:09:15.976Z,993.95
2018-03-01T14:10:25.807Z,993.92
2018-03-01T14:11:35.627Z,993.87
2018-03-01T14:12:45.416Z,993.88
2018-03-01T14:13:55.208Z,993.82
2018-03-01T14:15:05.005Z,993.79
2018-03-01T14:16:15.090Z,993.82
2018-03-01T14:17:24.931Z,993.81
2018-03-01T14:18:34.466Z,993.81
2018-03-01T14:19:44.558Z,993.8
2018-03-01T14:20:54.353Z,993.82
2018-03-01T14:22:04.418Z,993.77
2018-03-01T14:23:14.233Z,993.74
2018-03-01T14:24:24.036Z,993.7
2018-03-01T14:25:34.218Z,993.73
2018-03-01T14:26:44.028Z,993.77
2018-03-01T14:27:53.844Z,993.78
2018-03-01T14:29:03.375Z,993.79
2018-03-01T14:30:13.450Z,993.75
2018-03-01T14:31:23.496Z,993.68
2018-03-01T14:32:33.079Z,993.73
2018-03-01T14:33:42.868Z,993.74
2018-03-01T14:34:52.661Z,993.7
2018-03-01T14:36:02.471Z,993.67
2018-03-01T14:37:12.586Z,993.69
2018-03-01T14:38:22.719Z,993.69
2018-03-01T14:39:32.805Z,993.57
2018-03-01T14:40:42.879Z,993.62
2018-03-01T14:41:51.903Z,993.61
2018-03-01T14:43:01.708Z,993.65
2018-03-01T14:44:11.779Z,993.65
2018-03-01T14:45:21.850Z,993.72
2018-03-01T14:46:31.908Z,993.64
2018-03-01T14:47:41.736Z,993.74
2018-03-01T14:48:51.807Z,993.65
2018-03-01T14:50:01.713Z,993.69
2018-03-01T14:51:11.526Z,993.67
2018-03-01T14:52:21.601Z,993.7
2018-03-01T14:53:31.683Z,993.66
2018-03-01T14:54:41.477Z,993.7
2018-03-01T14:55:51.626Z,993.66
2018-03-01T14:57:01.423Z,993.66
2018-03-01T14:58:11.257Z,993.7
2018-03-01T14:59:20.524Z,993.7
2018-03-01T15:00:30.070Z,993.62